createdAt,value
2018-12-19T00:01:27.244Z,34.10
2018-12-19T00:03:55.970Z,31.23
2018-12-19T00:06:25.561Z,30.43
2018-12-19T00:08:54.221Z,31.23
2018-12-19T00:11:22.934Z,32.70
2018-12-19T00:13:51.703Z,33.67
2018-12-19T00:16:20.435Z,33.70
2018-12-19T00:18:49.108Z,32.17
2018-12-19T00:21:17.997Z,33.67
2018-12-19T00:23:46.787Z,32.30
2018-12-19T00:26:15.477Z,34.33
2018-12-19T00:28:44.171Z,34.10
2018-12-19T00:31:12.911Z,34.87
2018-12-19T00:33:41.552Z,32.73
2018-12-19T00:36:10.271Z,30.90
2018-12-19T00:38:38.984Z,34.07
2018-12-19T00:41:07.807Z,34.63
2018-12-19T00:43:36.475Z,32.30
2018-12-19T00:46:05.172Z,31.83
2018-12-19T00:48:33.877Z,34.53
2018-12-19T00:51:02.521Z,33.53
2018-12-19T00:53:31.224Z,30.23
2018-12-19T00:55:59.862Z,32.97
2018-12-19T00:58:28.570Z,33.57
2018-12-19T01:00:57.279Z,32.40
2018-12-19T01:03:25.986Z,32.57
2018-12-19T01:05:54.707Z,32.53
2018-12-19T01:08:24.466Z,31.33
2018-12-19T01:10:53.290Z,31.80
2018-12-19T01:13:21.968Z,32.20
2018-12-19T01:15:50.700Z,31.80
2018-12-19T01:18:19.378Z,32.53
2018-12-19T01:20:48.081Z,31.63
2018-12-19T01:23:16.784Z,31.33
2018-12-19T01:25:45.470Z,31.60
2018-12-19T01:28:14.261Z,32.37
2018-12-19T01:30:42.952Z,31.57
2018-12-19T01:33:11.637Z,28.80
2018-12-19T01:35:40.383Z,29.87
2018-12-19T01:38:09.077Z,28.33
2018-12-19T01:40:37.790Z,28.77
2018-12-19T01:43:06.484Z,29.83
2018-12-19T01:45:35.218Z,30.07
2018-12-19T01:48:04.057Z,28.93
2018-12-19T01:50:32.692Z,29.17
2018-12-19T01:53:01.376Z,29.43
2018-12-19T01:55:30.062Z,29.40
2018-12-19T01:57:58.785Z,29.37
2018-12-19T02:00:34.203Z,31.27
2018-12-19T02:03:02.893Z,28.27
2018-12-19T02:05:31.586Z,28.03
2018-12-19T02:08:00.297Z,28.37
2018-12-19T02:10:28.980Z,28.43
2018-12-19T02:12:57.667Z,27.00
2018-12-19T02:15:26.321Z,29.40
2018-12-19T02:17:55.037Z,28.47
2018-12-19T02:20:23.713Z,30.07
2018-12-19T02:22:52.405Z,28.37
2018-12-19T02:25:21.225Z,26.97
2018-12-19T02:27:49.903Z,28.20
2018-12-19T02:30:18.588Z,28.50
2018-12-19T02:32:47.315Z,26.50
2018-12-19T02:35:16.096Z,27.03
2018-12-19T02:37:44.721Z,27.77
2018-12-19T02:40:13.405Z,28.97
2018-12-19T02:42:42.056Z,25.80
2018-12-19T02:45:10.791Z,28.23
2018-12-19T02:47:39.421Z,24.90
2018-12-19T02:50:08.145Z,26.40
2018-12-19T02:52:36.804Z,26.60
2018-12-19T02:55:05.498Z,25.47
2018-12-19T02:57:34.121Z,27.10
2018-12-19T03:00:02.837Z,25.63
2018-12-19T03:02:31.560Z,25.90
2018-12-19T03:05:00.236Z,26.13
2018-12-19T03:07:28.942Z,26.93
2018-12-19T03:09:57.620Z,27.50
2018-12-19T03:12:26.327Z,24.17
2018-12-19T03:14:55.012Z,23.47
2018-12-19T03:17:23.672Z,22.60
2018-12-19T03:19:52.328Z,24.53
2018-12-19T03:22:21.035Z,25.23
2018-12-19T03:24:49.761Z,25.73
2018-12-19T03:27:18.490Z,24.70
2018-12-19T03:29:47.155Z,25.00
2018-12-19T03:32:15.905Z,25.47
2018-12-19T03:34:44.669Z,27.40
2018-12-19T03:37:13.326Z,25.60
2018-12-19T03:39:41.962Z,24.17
2018-12-19T03:42:10.647Z,23.53
2018-12-19T03:44:39.308Z,23.33
2018-12-19T03:47:07.988Z,24.80
2018-12-19T03:49:37.066Z,24.13
2018-12-19T03:52:05.742Z,25.20
2018-12-19T03:54:34.378Z,24.60
2018-12-19T03:57:04.505Z,25.10
2018-12-19T03:59:33.355Z,24.27
2018-12-19T04:02:02.073Z,23.07
2018-12-19T04:04:30.718Z,24.20
2018-12-19T04:06:59.479Z,24.47
2018-12-19T04:09:28.134Z,24.07
2018-12-19T04:11:56.832Z,25.93
2018-12-19T04:14:25.504Z,25.33
2018-12-19T04:16:54.213Z,26.33
2018-12-19T04:19:22.877Z,23.67
2018-12-19T04:21:51.646Z,26.93
2018-12-19T04:24:20.286Z,25.90
2018-12-19T04:26:49.011Z,26.07
2018-12-19T04:29:17.680Z,26.60
2018-12-19T04:31:46.312Z,26.87
2018-12-19T04:34:14.990Z,25.83
2018-12-19T04:36:43.626Z,25.27
2018-12-19T04:39:12.327Z,26.23
2018-12-19T04:41:41.062Z,28.50
2018-12-19T04:44:09.959Z,25.73
2018-12-19T04:46:38.838Z,26.77
2018-12-19T04:49:07.762Z,26.23
2018-12-19T04:51:36.717Z,25.40
2018-12-19T04:54:05.543Z,23.93
2018-12-19T04:56:34.232Z,26.03
2018-12-19T04:59:02.927Z,24.57
2018-12-19T05:01:31.601Z,30.13
2018-12-19T05:04:00.296Z,25.53
2018-12-19T05:06:29.017Z,26.40
2018-12-19T05:08:57.727Z,26.50
2018-12-19T05:11:26.380Z,28.03
2018-12-19T05:13:55.064Z,28.33
2018-12-19T05:16:23.927Z,25.57
2018-12-19T05:18:52.635Z,26.57
2018-12-19T05:21:21.294Z,27.73
2018-12-19T05:23:49.987Z,25.93
2018-12-19T05:26:18.712Z,27.83
2018-12-19T05:28:47.380Z,26.93
2018-12-19T05:31:16.028Z,28.40
2018-12-19T05:33:44.723Z,26.47
2018-12-19T05:36:13.366Z,28.87
2018-12-19T05:38:42.048Z,27.83
2018-12-19T05:41:10.719Z,29.23
2018-12-19T05:43:39.378Z,27.70
2018-12-19T05:46:08.101Z,28.07
2018-12-19T05:48:36.781Z,26.93
2018-12-19T05:51:05.467Z,26.53
2018-12-19T05:53:34.119Z,28.03
2018-12-19T05:56:02.825Z,29.73
2018-12-19T05:58:31.479Z,28.53
2018-12-19T06:01:00.173Z,28.03
2018-12-19T06:03:29.701Z,28.50
2018-12-19T06:05:58.436Z,27.20
2018-12-19T06:08:27.098Z,26.93
2018-12-19T06:10:55.839Z,29.07
2018-12-19T06:13:24.506Z,27.87
2018-12-19T06:15:53.210Z,26.90
2018-12-19T06:18:21.868Z,27.77
2018-12-19T06:20:50.562Z,28.20
2018-12-19T06:23:19.235Z,27.73
2018-12-19T06:25:47.939Z,29.70
2018-12-19T06:28:16.685Z,28.40
2018-12-19T06:30:45.400Z,28.13
2018-12-19T06:33:14.279Z,27.43
2018-12-19T06:35:43.419Z,26.73
2018-12-19T06:38:12.106Z,26.30
2018-12-19T06:40:40.800Z,26.90
2018-12-19T06:43:09.507Z,26.00
2018-12-19T06:45:38.165Z,24.43
2018-12-19T06:48:06.904Z,27.63
2018-12-19T06:50:35.554Z,26.93
2018-12-19T06:53:04.246Z,26.10
2018-12-19T06:55:32.892Z,26.10
2018-12-19T06:58:01.590Z,26.87
2018-12-19T07:00:30.259Z,25.90
2018-12-19T07:02:58.947Z,25.17
2018-12-19T07:05:28.033Z,27.03
2018-12-19T07:07:56.763Z,27.40
2018-12-19T07:10:25.438Z,26.00
2018-12-19T07:12:54.141Z,25.73
2018-12-19T07:15:22.871Z,26.17
2018-12-19T07:17:51.570Z,24.03
2018-12-19T07:20:20.297Z,25.83
2018-12-19T07:22:48.940Z,24.77
2018-12-19T07:25:17.679Z,25.47
2018-12-19T07:27:46.320Z,26.03
2018-12-19T07:30:15.015Z,25.50
2018-12-19T07:32:43.688Z,25.53
2018-12-19T07:35:12.551Z,23.30
2018-12-19T07:37:41.190Z,25.37
2018-12-19T07:40:09.899Z,25.03
2018-12-19T07:42:38.568Z,25.77
2018-12-19T07:45:07.260Z,27.00
2018-12-19T07:47:35.888Z,27.07
2018-12-19T07:50:05.954Z,28.60
2018-12-19T07:52:34.647Z,28.10
2018-12-19T07:55:04.546Z,26.93
2018-12-19T07:57:33.423Z,26.03
2018-12-19T08:00:02.071Z,24.80
2018-12-19T08:02:30.778Z,25.57
2018-12-19T08:04:59.457Z,24.77
2018-12-19T08:07:34.075Z,24.10
2018-12-19T08:10:05.309Z,25.80
2018-12-19T08:12:36.179Z,25.47
2018-12-19T08:15:05.570Z,24.73
2018-12-19T08:17:34.248Z,26.50
2018-12-19T08:20:02.937Z,24.77
2018-12-19T08:22:31.609Z,24.43
2018-12-19T08:25:00.254Z,25.07
2018-12-19T08:27:28.987Z,26.53
2018-12-19T08:29:57.627Z,24.63
2018-12-19T08:32:26.316Z,24.77
2018-12-19T08:34:54.976Z,23.80
2018-12-19T08:37:23.660Z,22.20
2018-12-19T08:39:52.317Z,22.40
2018-12-19T08:42:21.039Z,23.93
2018-12-19T08:44:49.733Z,21.87
2018-12-19T08:47:18.525Z,23.23
2018-12-19T08:49:47.363Z,22.80
2018-12-19T08:52:16.048Z,23.67
2018-12-19T08:54:44.826Z,22.93
2018-12-19T08:57:13.509Z,22.70
2018-12-19T08:59:42.238Z,23.27
2018-12-19T09:02:12.050Z,21.20
2018-12-19T09:04:40.857Z,21.00
2018-12-19T09:07:09.534Z,23.00
2018-12-19T09:09:38.232Z,20.97
2018-12-19T09:12:07.059Z,21.53
2018-12-19T09:14:35.786Z,20.90
2018-12-19T09:17:09.557Z,20.00
2018-12-19T09:19:38.659Z,18.10
2018-12-19T09:22:07.329Z,20.23
2018-12-19T09:24:36.019Z,20.50
2018-12-19T09:27:04.714Z,19.40
2018-12-19T09:29:33.548Z,20.10
2018-12-19T09:32:02.262Z,19.70
2018-12-19T09:34:30.906Z,17.97
2018-12-19T09:36:59.597Z,18.67
2018-12-19T09:39:28.285Z,17.40
2018-12-19T09:41:56.922Z,18.23
2018-12-19T09:44:25.631Z,17.93
2018-12-19T09:46:54.339Z,17.93
2018-12-19T09:49:22.984Z,17.63
2018-12-19T09:51:51.685Z,17.37
2018-12-19T09:54:20.393Z,18.03
2018-12-19T09:56:49.090Z,17.77
2018-12-19T09:59:17.781Z,18.40
2018-12-19T10:01:46.723Z,16.70
2018-12-19T10:04:15.391Z,16.93
2018-12-19T10:06:44.242Z,18.17
2018-12-19T10:09:14.925Z,18.67
2018-12-19T10:11:43.719Z,17.00
2018-12-19T10:14:13.491Z,18.10
2018-12-19T10:16:42.183Z,17.57
2018-12-19T10:19:10.858Z,18.07
2018-12-19T10:21:39.568Z,16.10
2018-12-19T10:24:08.205Z,17.33
2018-12-19T10:26:40.295Z,15.40
2018-12-19T10:29:09.111Z,15.30
2018-12-19T10:31:37.903Z,15.77
2018-12-19T10:34:06.634Z,16.13
2018-12-19T10:36:37.929Z,14.97
2018-12-19T10:39:14.616Z,14.73
2018-12-19T10:41:43.352Z,19.33
2018-12-19T10:44:12.307Z,20.80
2018-12-19T10:46:41.179Z,19.87
2018-12-19T10:49:09.932Z,18.00
2018-12-19T10:51:38.935Z,17.13
2018-12-19T10:54:08.217Z,15.30
2018-12-19T10:56:36.995Z,15.50
2018-12-19T10:59:06.113Z,15.77
2018-12-19T11:01:35.333Z,15.47
2018-12-19T11:04:04.945Z,15.40
2018-12-19T11:06:33.742Z,15.10
2018-12-19T11:09:13.015Z,15.30
2018-12-19T11:11:43.645Z,15.80
2018-12-19T11:14:12.791Z,13.53
2018-12-19T11:16:41.883Z,14.93
2018-12-19T11:19:21.798Z,14.50
2018-12-19T11:21:50.791Z,14.53
2018-12-19T11:24:19.670Z,14.27
2018-12-19T11:26:49.193Z,13.90
2018-12-19T11:29:18.831Z,16.40
2018-12-19T11:31:47.775Z,14.87
2018-12-19T11:34:17.170Z,14.07
2018-12-19T11:36:46.330Z,13.43
2018-12-19T11:39:15.459Z,12.63
2018-12-19T11:41:44.314Z,13.83
2018-12-19T11:44:13.091Z,13.57
2018-12-19T11:46:42.138Z,13.37
2018-12-19T11:49:11.518Z,13.03
2018-12-19T11:51:41.629Z,12.77
2018-12-19T11:54:10.570Z,12.97
2018-12-19T11:56:39.394Z,11.67
2018-12-19T11:59:08.245Z,14.00
2018-12-19T12:01:41.386Z,12.87
2018-12-19T12:04:15.200Z,12.77
2018-12-19T12:06:45.606Z,13.20
2018-12-19T12:09:15.490Z,11.67
2018-12-19T12:11:45.790Z,11.90
2018-12-19T12:14:14.993Z,10.47
2018-12-19T12:16:47.208Z,11.07
2018-12-19T12:19:16.785Z,11.60
2018-12-19T12:21:46.104Z,11.20
2018-12-19T12:24:14.951Z,12.63
2018-12-19T12:26:43.795Z,10.67
2018-12-19T12:29:13.040Z,12.27
2018-12-19T12:31:42.587Z,11.23
2018-12-19T12:34:12.556Z,11.83
2018-12-19T12:36:41.356Z,10.67
2018-12-19T12:39:10.211Z,11.30
2018-12-19T12:41:39.084Z,10.90
2018-12-19T12:44:08.069Z,12.00
2018-12-19T12:46:37.693Z,11.23
2018-12-19T12:49:07.083Z,14.53
2018-12-19T12:51:36.286Z,11.97
2018-12-19T12:54:06.092Z,11.03
2018-12-19T12:56:34.866Z,11.37
2018-12-19T12:59:03.836Z,11.13
2018-12-19T13:01:32.681Z,10.30
2018-12-19T13:04:01.685Z,10.87
2018-12-19T13:06:30.648Z,10.77
2018-12-19T13:08:59.538Z,11.60
2018-12-19T13:11:28.342Z,11.60
2018-12-19T13:13:57.350Z,11.27
2018-12-19T13:16:26.517Z,11.10
2018-12-19T13:18:56.382Z,11.17
2018-12-19T13:21:25.340Z,10.50
2018-12-19T13:23:54.109Z,10.03
2018-12-19T13:26:22.921Z,10.37
2018-12-19T13:28:52.413Z,10.57
2018-12-19T13:31:21.238Z,10.50
2018-12-19T13:33:50.043Z,10.43
2018-12-19T13:36:18.926Z,12.03
2018-12-19T13:38:47.825Z,11.17
2018-12-19T13:41:16.775Z,11.00
2018-12-19T13:43:46.062Z,11.47
2018-12-19T13:46:14.857Z,11.87
2018-12-19T13:48:43.665Z,11.13
2018-12-19T13:51:13.697Z,12.57
2018-12-19T13:53:42.986Z,12.13
2018-12-19T13:56:11.797Z,11.30
2018-12-19T13:58:42.062Z,12.00
2018-12-19T14:01:11.152Z,10.97
2018-12-19T14:03:40.140Z,11.70
2018-12-19T14:06:08.878Z,11.87
2018-12-19T14:08:39.339Z,12.93
2018-12-19T14:11:08.349Z,12.53
2018-12-19T14:13:37.470Z,11.97
2018-12-19T14:16:08.274Z,12.30
2018-12-19T14:18:36.945Z,12.70
2018-12-19T14:21:05.607Z,12.67
2018-12-19T14:23:35.110Z,13.07
2018-12-19T14:26:03.952Z,11.27
2018-12-19T14:28:32.848Z,13.07
2018-12-19T14:31:01.515Z,11.77
2018-12-19T14:33:31.030Z,12.50
2018-12-19T14:36:00.280Z,13.03
2018-12-19T14:38:29.074Z,12.43
2018-12-19T14:40:57.965Z,12.33
2018-12-19T14:43:27.046Z,13.03
2018-12-19T14:45:55.878Z,13.20
2018-12-19T14:48:24.713Z,12.60
2018-12-19T14:50:53.626Z,10.63
2018-12-19T14:53:22.636Z,11.20
2018-12-19T14:55:51.997Z,12.50
2018-12-19T14:58:21.104Z,12.03
2018-12-19T15:00:50.117Z,11.80
2018-12-19T15:03:19.958Z,12.00
2018-12-19T15:05:49.802Z,12.27
2018-12-19T15:08:19.659Z,11.07
2018-12-19T15:10:48.937Z,10.97
2018-12-19T15:13:18.116Z,11.27
2018-12-19T15:16:01.911Z,11.90
2018-12-19T15:18:34.428Z,12.60
2018-12-19T15:21:04.659Z,11.90
2018-12-19T15:23:33.674Z,12.17
2018-12-19T15:26:02.827Z,13.03
2018-12-19T15:28:32.228Z,13.07
2018-12-19T15:31:01.257Z,12.57
2018-12-19T15:33:32.615Z,11.57
2018-12-19T15:36:01.964Z,12.40
2018-12-19T15:38:30.878Z,12.07
2018-12-19T15:41:05.273Z,11.10
2018-12-19T15:43:34.217Z,12.37
2018-12-19T15:46:03.339Z,11.40
2018-12-19T15:48:32.189Z,11.30
2018-12-19T15:51:00.950Z,11.83
2018-12-19T15:53:31.338Z,11.50
2018-12-19T15:56:00.383Z,10.87
2018-12-19T15:58:29.346Z,11.70
2018-12-19T16:00:58.125Z,11.47
2018-12-19T16:03:28.100Z,11.80
2018-12-19T16:05:57.912Z,12.63
2018-12-19T16:08:27.611Z,12.97
2018-12-19T16:10:57.403Z,12.90
2018-12-19T16:13:26.288Z,12.07
2018-12-19T16:15:55.289Z,12.13
2018-12-19T16:18:26.892Z,12.33
2018-12-19T16:20:56.273Z,12.70
2018-12-19T16:23:25.164Z,11.43
2018-12-19T16:25:54.200Z,12.47
2018-12-19T16:28:23.672Z,11.97
2018-12-19T16:30:52.626Z,12.10
2018-12-19T16:33:21.664Z,12.47
2018-12-19T16:35:50.633Z,11.33
2018-12-19T16:38:19.528Z,11.70
2018-12-19T16:40:48.812Z,10.70
2018-12-19T16:43:17.756Z,11.00
2018-12-19T16:45:47.272Z,12.43
2018-12-19T16:48:16.020Z,11.70
2018-12-19T16:50:45.733Z,12.10
2018-12-19T16:53:14.718Z,11.23
2018-12-19T16:55:44.524Z,11.73
2018-12-19T16:58:13.524Z,12.03
2018-12-19T17:00:59.584Z,11.70
2018-12-19T17:03:47.315Z,12.20
2018-12-19T17:06:35.182Z,12.23
2018-12-19T17:09:11.578Z,12.93
2018-12-19T17:11:40.359Z,13.00
2018-12-19T17:14:24.625Z,12.93
2018-12-19T17:16:55.487Z,12.87
2018-12-19T17:19:26.843Z,12.47
2018-12-19T17:21:56.314Z,11.67
2018-12-19T17:24:30.789Z,13.50
2018-12-19T17:27:00.300Z,12.70
2018-12-19T17:29:29.833Z,13.97
2018-12-19T17:32:00.417Z,13.07
2018-12-19T17:34:29.938Z,14.03
2018-12-19T17:36:59.183Z,14.53
2018-12-19T17:39:31.089Z,15.93
2018-12-19T17:42:00.371Z,15.30
2018-12-19T17:44:29.827Z,15.43
2018-12-19T17:46:59.033Z,15.80
2018-12-19T17:49:30.491Z,15.27
2018-12-19T17:51:59.958Z,14.90
2018-12-19T17:54:29.301Z,14.73
2018-12-19T17:56:58.883Z,13.47
2018-12-19T17:59:28.144Z,13.23
2018-12-19T18:01:57.406Z,13.37
2018-12-19T18:04:26.762Z,13.20
2018-12-19T18:06:56.283Z,14.33
2018-12-19T18:09:26.124Z,14.30
2018-12-19T18:11:55.377Z,14.07
2018-12-19T18:14:24.619Z,13.90
2018-12-19T18:16:54.012Z,14.77
2018-12-19T18:19:23.565Z,15.13
2018-12-19T18:21:53.120Z,15.13
2018-12-19T18:24:22.845Z,15.23
2018-12-19T18:26:52.143Z,15.80
2018-12-19T18:29:21.390Z,16.13
2018-12-19T18:31:50.718Z,17.30
2018-12-19T18:34:20.196Z,15.73
2018-12-19T18:36:49.490Z,16.10
2018-12-19T18:39:18.728Z,17.03
2018-12-19T18:41:49.119Z,16.50
2018-12-19T18:44:18.488Z,16.73
2018-12-19T18:46:47.714Z,15.53
2018-12-19T18:49:17.022Z,16.67
2018-12-19T18:51:46.392Z,16.77
2018-12-19T18:54:15.810Z,15.80
2018-12-19T18:56:45.430Z,17.07
2018-12-19T18:59:16.888Z,15.07
2018-12-19T19:01:46.365Z,17.90
2018-12-19T19:04:15.617Z,17.60
2018-12-19T19:06:44.827Z,17.30
2018-12-19T19:09:14.031Z,16.20
2018-12-19T19:11:44.017Z,18.50
2018-12-19T19:14:13.513Z,18.67
2018-12-19T19:16:43.108Z,17.37
2018-12-19T19:19:13.125Z,16.83
2018-12-19T19:21:42.502Z,16.93
2018-12-19T19:24:11.931Z,17.97
2018-12-19T19:26:41.259Z,16.87
2018-12-19T19:29:10.735Z,18.20
2018-12-19T19:31:40.240Z,18.10
2018-12-19T19:34:09.558Z,18.00
2018-12-19T19:36:39.995Z,16.83
2018-12-19T19:39:09.828Z,20.00
2018-12-19T19:41:39.126Z,20.37
2018-12-19T19:44:09.193Z,18.40
2018-12-19T19:46:38.766Z,19.83
2018-12-19T19:49:08.134Z,16.57
2018-12-19T19:51:37.889Z,17.90
2018-12-19T19:54:07.610Z,16.67
2018-12-19T19:56:37.110Z,17.63
2018-12-19T19:59:06.669Z,18.23
2018-12-19T20:01:36.142Z,17.77
2018-12-19T20:04:05.772Z,18.10
2018-12-19T20:06:35.698Z,20.03
2018-12-19T20:09:07.609Z,18.60
2018-12-19T20:11:38.161Z,17.80
2018-12-19T20:14:07.613Z,18.80
2018-12-19T20:16:42.551Z,18.80
2018-12-19T20:19:11.817Z,19.07
2018-12-19T20:21:41.179Z,18.30
2018-12-19T20:24:10.454Z,17.90
2018-12-19T20:26:39.900Z,19.33
2018-12-19T20:29:09.660Z,18.93
2018-12-19T20:31:39.009Z,19.83
2018-12-19T20:34:08.362Z,18.17
2018-12-19T20:36:37.715Z,18.87
2018-12-19T20:39:08.850Z,19.47
2018-12-19T20:41:38.326Z,19.13
2018-12-19T20:44:07.690Z,19.80
2018-12-19T20:46:37.063Z,19.00
2018-12-19T20:49:06.411Z,18.03
2018-12-19T20:51:36.360Z,17.87
2018-12-19T20:54:06.283Z,19.73
2018-12-19T20:56:35.615Z,18.37
2018-12-19T20:59:06.430Z,18.80
2018-12-19T21:01:35.864Z,17.67
2018-12-19T21:04:05.798Z,18.23
2018-12-19T21:06:35.259Z,18.53
2018-12-19T21:09:07.596Z,18.63
2018-12-19T21:11:36.952Z,20.23
2018-12-19T21:14:07.319Z,20.50
2018-12-19T21:16:41.998Z,19.03
2018-12-19T21:19:11.298Z,19.60
2018-12-19T21:21:40.718Z,18.40
2018-12-19T21:24:10.215Z,19.37
2018-12-19T21:26:39.674Z,20.20
2018-12-19T21:29:09.029Z,17.30
2018-12-19T21:31:38.391Z,17.63
2018-12-19T21:34:07.811Z,19.07
2018-12-19T21:36:37.309Z,19.17
2018-12-19T21:39:09.762Z,18.50
2018-12-19T21:41:39.255Z,17.70
2018-12-19T21:44:08.572Z,19.27
2018-12-19T21:46:37.931Z,18.53
2018-12-19T21:49:06.607Z,18.27
2018-12-19T21:51:35.328Z,18.43
2018-12-19T21:54:04.370Z,18.70
2018-12-19T21:56:33.104Z,19.13
2018-12-19T21:59:01.862Z,18.70
2018-12-19T22:01:30.772Z,19.63
2018-12-19T22:03:59.548Z,20.10
2018-12-19T22:06:28.513Z,19.97
2018-12-19T22:08:59.420Z,20.20
2018-12-19T22:11:28.421Z,18.07
2018-12-19T22:14:00.577Z,20.97
2018-12-19T22:16:33.180Z,19.00
2018-12-19T22:19:02.034Z,20.13
2018-12-19T22:21:30.808Z,20.23
2018-12-19T22:23:59.571Z,18.60
2018-12-19T22:26:28.325Z,18.77
2018-12-19T22:28:56.995Z,19.10
2018-12-19T22:31:25.718Z,19.10
2018-12-19T22:33:54.547Z,19.43
2018-12-19T22:36:23.215Z,20.73
2018-12-19T22:38:51.911Z,19.80
2018-12-19T22:41:20.552Z,19.47
2018-12-19T22:43:49.297Z,18.30
2018-12-19T22:46:18.030Z,18.57
2018-12-19T22:48:46.755Z,19.50
2018-12-19T22:51:15.704Z,18.33
2018-12-19T22:53:44.460Z,19.17
2018-12-19T22:56:13.287Z,19.33
2018-12-19T22:58:42.182Z,19.97
2018-12-19T23:01:22.012Z,21.13
2018-12-19T23:03:56.095Z,21.87
2018-12-19T23:06:25.003Z,21.23
2018-12-19T23:08:53.748Z,18.77
2018-12-19T23:11:22.522Z,19.33
2018-12-19T23:13:51.221Z,20.33
2018-12-19T23:16:20.007Z,21.17
2018-12-19T23:18:48.822Z,20.93
2018-12-19T23:21:17.728Z,19.80
2018-12-19T23:23:46.532Z,20.50
2018-12-19T23:26:15.346Z,21.27
2018-12-19T23:28:44.267Z,23.17
2018-12-19T23:31:13.166Z,23.30
2018-12-19T23:33:42.066Z,21.20
2018-12-19T23:36:10.848Z,20.90
2018-12-19T23:38:39.569Z,20.83
2018-12-19T23:41:08.285Z,22.17
2018-12-19T23:43:37.046Z,21.17
2018-12-19T23:46:05.842Z,21.50
2018-12-19T23:48:35.496Z,23.03
2018-12-19T23:51:04.220Z,21.50
2018-12-19T23:53:33.084Z,21.63
2018-12-19T23:56:01.833Z,21.43
2018-12-19T23:58:30.509Z,19.23
